Time;durP1;ratioP1;P1;durP2;ratioP2;P2;SDS_P1;SDS_P2;PMS_P1;PMS_P2;Temp;Humidity;BMP_temperature;BMP_pressure;BME280_temperature;BME280_humidity;BME280_pressure;Samples;Min_cycle;Max_cycle;Signal;HPM_P1;HPM_P2
2021/12/19 00:02:46;1557027.00;5.19;2750.89;155633.00;0.52;269.51;;;;;7.00;1.00;;;;;;2279721;61;1033;-89
2021/12/19 00:10:43;1242224.00;4.14;2166.75;25201.00;0.08;44.28;;;;;6.90;1.00;;;;;;2277021;61;604;-88
2021/12/19 00:13:10;1483968.00;4.95;2612.99;195903.00;0.65;338.87;;;;;6.90;1.00;;;;;;2269774;61;1915;-86
2021/12/19 00:15:37;1221406.00;4.07;2128.97;179895.00;0.60;311.31;;;;;6.60;1.00;;;;;;2276955;61;1372;-87
2021/12/19 00:18:04;118232488.00;394.11;66949492.00;165952.00;0.55;287.29;;;;;6.60;1.00;;;;;;2264229;61;1063;-88
2021/12/19 00:20:31;1088618.00;3.63;1890.08;113666.00;0.38;197.16;;;;;6.70;1.00;;;;;;2264390;61;1069;-88
2021/12/19 00:22:58;118126128.00;393.75;66768808.00;87003.00;0.29;151.13;;;;;6.90;1.00;;;;;;2264327;61;1047;-87
2021/12/19 00:25:25;777974.00;2.59;1342.74;89968.00;0.30;156.25;;;;;7.20;1.00;;;;;;2264317;61;1004;-87
2021/12/19 00:27:54;1088164.00;3.63;1889.27;84788.00;0.28;147.31;;;;;7.00;1.00;;;;;;2264318;61;1343;-88
2021/12/19 00:30:21;975305.00;3.25;1688.78;120941.00;0.40;209.71;;;;;7.20;1.00;;;;;;2264185;61;1047;-89
2021/12/19 00:32:48;902329.00;3.01;1560.21;90333.00;0.30;156.88;;;;;7.30;1.00;;;;;;2264254;61;1039;-88
2021/12/19 00:35:15;1000319.00;3.33;1733.04;143873.00;0.48;249.25;;;;;7.20;1.00;;;;;;2265710;61;2031;-88
2021/12/19 00:37:42;956805.00;3.19;1656.11;94771.00;0.32;164.55;;;;;7.30;1.00;;;;;;2276620;61;1695;-89
2021/12/19 00:40:11;920604.00;3.07;1592.34;98929.00;0.33;171.72;;;;;7.20;1.00;;;;;;2276899;61;1023;-89
2021/12/19 00:42:38;941313.00;3.14;1628.80;103903.00;0.35;180.31;;;;;7.10;1.00;;;;;;2276931;61;1030;-89
2021/12/19 00:45:16;908620.00;3.03;1571.26;94675.00;0.32;164.38;;;;;7.20;1.00;;;;;;2264201;61;1047;-90
2021/12/19 00:47:43;947926.00;3.16;1640.45;90550.00;0.30;157.26;;;;;7.30;1.00;;;;;;2260160;61;1438;-90
2021/12/19 00:50:11;791618.00;2.64;1366.51;80828.00;0.27;140.47;;;;;7.30;1.00;;;;;;2260206;61;1028;-90
2021/12/19 00:52:38;689751.00;2.30;1189.47;109610.00;0.37;190.16;;;;;7.20;1.00;;;;;;2256871;61;1015;-90
2021/12/19 00:55:06;727219.00;2.42;1254.47;101089.00;0.34;175.45;;;;;7.10;1.00;;;;;;2260221;61;1953;-89
2021/12/19 00:57:33;912091.00;3.04;1577.37;91398.00;0.30;158.72;;;;;7.10;1.00;;;;;;2260259;61;1472;-89
2021/12/19 01:00:00;936665.00;3.12;1620.61;97679.00;0.33;169.57;;;;;7.30;1.00;;;;;;2253572;61;1025;-90
2021/12/19 01:02:29;937578.00;3.13;1622.22;74858.00;0.25;130.15;;;;;7.30;1.00;;;;;;2262594;61;931;-89
2021/12/19 01:04:56;1081582.00;3.61;1877.52;87217.00;0.29;151.50;;;;;7.30;1.00;;;;;;2272890;61;1210;-89
2021/12/19 01:07:24;797669.00;2.66;1377.06;101392.00;0.34;175.97;;;;;7.40;1.00;;;;;;2266347;61;1440;-89
2021/12/19 01:09:51;655174.00;2.18;1129.59;91788.00;0.31;159.39;;;;;7.10;1.00;;;;;;2276700;61;1765;-90
2021/12/19 01:12:18;742056.00;2.47;1280.25;122988.00;0.41;213.24;;;;;7.00;1.00;;;;;;2269696;61;964;-90
2021/12/19 01:14:45;833862.00;2.78;1440.24;82484.00;0.27;143.33;;;;;7.00;1.00;;;;;;2272126;61;1931;-89
2021/12/19 01:17:12;640050.00;2.13;1103.43;98905.00;0.33;171.68;;;;;7.10;1.00;;;;;;2263771;61;1350;-89
2021/12/19 01:19:40;117852528.00;392.84;66305532.00;104494.00;0.35;181.33;;;;;7.10;1.00;;;;;;2264122;61;970;-89
2021/12/19 01:22:07;792844.00;2.64;1368.65;89159.00;0.30;154.86;;;;;6.90;1.00;;;;;;2264156;61;983;-89
2021/12/19 01:24:34;812847.00;2.71;1403.54;86485.00;0.29;150.24;;;;;7.00;1.00;;;;;;2264127;61;1049;-89
2021/12/19 01:27:01;645155.00;2.15;1112.25;103900.00;0.35;180.30;;;;;7.20;1.00;;;;;;2256018;61;1325;-90
2021/12/19 01:29:29;631201.00;2.10;1088.13;86832.00;0.29;150.84;;;;;6.90;1.00;;;;;;2256142;61;1013;-89
2021/12/19 01:31:57;639106.00;2.13;1101.79;87324.00;0.29;151.69;;;;;7.20;1.00;;;;;;2253226;61;967;-90
2021/12/19 01:34:24;728845.00;2.43;1257.30;111116.00;0.37;192.76;;;;;7.30;1.00;;;;;;2256561;61;2005;-88
2021/12/19 01:36:53;550075.00;1.83;948.09;92472.00;0.31;160.58;;;;;7.10;1.00;;;;;;2256697;61;1408;-89
2021/12/19 01:39:21;841610.00;2.81;1453.79;0.00;0.00;0.62;;;;;6.90;1.00;;;;;;2260030;61;978;-89
2021/12/19 01:41:50;602942.00;2.01;1039.30;0.00;0.00;0.62;;;;;6.90;1.00;;;;;;2252046;61;974;-88
2021/12/19 01:44:17;661253.00;2.20;1140.11;9549.00;0.03;17.17;;;;;6.90;1.00;;;;;;2253189;61;991;-89
2021/12/19 01:46:46;510632.00;1.70;880.13;0.00;0.00;0.62;;;;;7.00;1.00;;;;;;2253380;61;1378;-89
2021/12/19 01:49:14;477071.00;1.59;822.36;0.00;0.00;0.62;;;;;6.80;1.00;;;;;;2251971;61;1071;-89
2021/12/19 01:51:41;494539.00;1.65;852.42;0.00;0.00;0.62;;;;;6.90;1.00;;;;;;2253338;61;950;-89
2021/12/19 01:54:11;533451.00;1.78;919.44;0.00;0.00;0.62;;;;;6.90;1.00;;;;;;2260019;61;2010;-88
2021/12/19 01:56:40;618681.00;2.06;1066.49;0.00;0.00;0.62;;;;;6.80;1.00;;;;;;2260030;61;1398;-89
2021/12/19 01:59:10;566439.00;1.89;976.30;0.00;0.00;0.62;;;;;6.40;1.00;;;;;;2252697;61;1037;-89
2021/12/19 02:01:42;467240.00;1.56;805.44;0.00;0.00;0.62;;;;;6.00;1.00;;;;;;2256083;61;1037;-88
2021/12/19 02:04:10;546814.00;1.82;942.47;0.00;0.00;0.62;;;;;6.00;1.00;;;;;;2256084;61;927;-89
2021/12/19 02:06:37;554827.00;1.85;956.28;0.00;0.00;0.62;;;;;6.20;1.00;;;;;;2258643;61;1422;-89
2021/12/19 02:09:06;600995.00;2.00;1035.94;0.00;0.00;0.62;;;;;6.50;1.00;;;;;;2268031;61;1012;-88
2021/12/19 02:11:36;497740.00;1.66;857.93;0.00;0.00;0.62;;;;;6.80;1.00;;;;;;2268000;61;1001;-89
2021/12/19 02:14:04;530110.00;1.77;913.68;0.00;0.00;0.62;;;;;6.80;1.00;;;;;;2268039;61;2007;-88
2021/12/19 02:16:32;631751.00;2.11;1089.08;0.00;0.00;0.62;;;;;6.70;1.00;;;;;;2269871;61;1680;-89
2021/12/19 02:19:00;432357.00;1.44;745.44;0.00;0.00;0.62;;;;;6.70;1.00;;;;;;2276562;61;1114;-89
2021/12/19 02:21:28;559002.00;1.86;963.48;0.00;0.00;0.62;;;;;6.60;1.00;;;;;;2276547;61;1518;-89
2021/12/19 02:24:01;668040.00;2.23;1151.86;0.00;0.00;0.62;;;;;6.60;1.00;;;;;;2276517;61;1605;-89
2021/12/19 02:26:29;624415.00;2.08;1076.40;0.00;0.00;0.62;;;;;6.80;1.00;;;;;;2276492;61;1577;-89
2021/12/19 02:28:56;589516.00;1.97;1016.12;0.00;0.00;0.62;;;;;6.80;1.00;;;;;;2276426;61;1495;-88
2021/12/19 02:31:23;552191.00;1.84;951.74;0.00;0.00;0.62;;;;;6.90;1.00;;;;;;2276451;61;1761;-89
2021/12/19 02:34:02;495480.00;1.65;854.04;0.00;0.00;0.62;;;;;6.80;1.00;;;;;;2276480;61;1993;-89
2021/12/19 02:36:45;457184.00;1.52;788.14;0.00;0.00;0.62;;;;;7.00;1.00;;;;;;2276495;61;1385;-89
2021/12/19 02:50:24;730502.00;2.44;1260.17;89139.00;0.30;154.82;;;;;6.40;1.00;;;;;;2276509;61;732;-90
2021/12/19 02:52:53;919720.00;3.07;1590.78;95924.00;0.32;166.54;;;;;6.40;1.00;;;;;;2276453;61;1138;-88
2021/12/19 02:55:21;1046817.00;3.49;1815.57;82410.00;0.27;143.20;;;;;6.30;1.00;;;;;;2276359;61;1996;-89
2021/12/19 02:57:49;823588.00;2.75;1422.29;99322.00;0.33;172.40;;;;;6.10;1.00;;;;;;2276307;61;1691;-89
2021/12/19 03:00:20;682749.00;2.28;1177.34;85589.00;0.29;148.69;;;;;6.20;1.00;;;;;;2276337;61;1604;-88
2021/12/19 03:02:47;574298.00;1.91;989.86;105860.00;0.35;183.69;;;;;6.20;1.00;;;;;;2276404;61;984;-87
2021/12/19 03:05:14;666036.00;2.22;1148.39;0.00;0.00;0.62;;;;;6.40;1.00;;;;;;2276344;61;1001;-87
2021/12/19 03:07:43;490895.00;1.64;846.15;6640.00;0.02;12.13;;;;;6.20;1.00;;;;;;2276347;61;1399;-89
2021/12/19 03:13:08;706956.00;2.36;1219.30;110966.00;0.37;192.50;;;;;6.40;1.00;;;;;;2276398;61;695;-88
2021/12/19 03:18:24;445756.00;1.49;768.48;0.00;0.00;0.62;;;;;6.80;1.00;;;;;;2276413;61;604;-88
2021/12/19 03:20:51;606960.00;2.02;1046.24;0.00;0.00;0.62;;;;;6.70;1.00;;;;;;2276396;61;1024;-88
2021/12/19 03:23:18;550866.00;1.84;949.45;12551.00;0.04;22.37;;;;;6.40;1.00;;;;;;2276373;61;1018;-90
2021/12/19 03:25:47;463781.00;1.55;799.49;0.00;0.00;0.62;;;;;6.50;1.00;;;;;;2276349;61;1392;-89
2021/12/19 03:28:15;609680.00;2.03;1050.94;26714.00;0.09;46.89;;;;;6.70;1.00;;;;;;2276291;61;1689;-89
2021/12/19 03:30:44;591104.00;1.97;1018.86;2066.00;0.01;4.20;;;;;6.60;1.00;;;;;;2276159;61;1700;-88
2021/12/19 03:33:12;1077026.00;3.59;1869.39;33060.00;0.11;57.88;;;;;5.80;1.00;;;;;;2276205;61;1600;-88
2021/12/19 03:35:40;499141.00;1.66;860.34;0.00;0.00;0.62;;;;;5.00;1.00;;;;;;2276275;61;1997;-88
2021/12/19 03:38:09;593114.00;1.98;1022.33;0.00;0.00;0.62;;;;;5.20;1.00;;;;;;2276273;61;1697;-89
2021/12/19 03:40:39;605304.00;2.02;1043.38;0.00;0.00;0.62;;;;;5.60;1.00;;;;;;2276624;61;1040;-87
2021/12/19 03:43:11;523358.00;1.74;902.05;0.00;0.00;0.62;;;;;5.90;1.00;;;;;;2277009;61;1138;-87
2021/12/19 03:45:38;445134.00;1.48;767.41;0.00;0.00;0.62;;;;;5.90;1.00;;;;;;2277013;61;1830;-88
2021/12/19 03:48:11;471430.00;1.57;812.65;0.00;0.00;0.62;;;;;6.10;1.00;;;;;;2276937;61;1619;-88
2021/12/19 03:50:38;562779.00;1.88;969.99;0.00;0.00;0.62;;;;;6.40;1.00;;;;;;2276950;61;1000;-89
2021/12/19 03:53:05;712129.00;2.37;1228.28;0.00;0.00;0.62;;;;;6.30;1.00;;;;;;2277025;61;1127;-89
2021/12/19 03:55:33;584546.00;1.95;1007.54;0.00;0.00;0.62;;;;;6.30;1.00;;;;;;2276947;61;1998;-89
2021/12/19 03:58:02;918139.00;3.06;1588.00;0.00;0.00;0.62;;;;;6.40;1.00;;;;;;2276888;61;1662;-88
2021/12/19 04:00:31;702506.00;2.34;1211.58;46536.00;0.16;81.20;;;;;6.30;1.00;;;;;;2276961;61;1574;-88
2021/12/19 04:03:03;619315.00;2.06;1067.58;0.00;0.00;0.62;;;;;6.40;1.00;;;;;;2276872;61;1176;-89
2021/12/19 04:05:32;699668.00;2.33;1206.66;0.00;0.00;0.62;;;;;6.50;1.00;;;;;;2276960;61;1230;-89
2021/12/19 04:08:00;526699.00;1.76;907.80;0.00;0.00;0.62;;;;;6.60;1.00;;;;;;2276592;61;1718;-89
2021/12/19 04:10:28;667825.00;2.23;1151.49;0.00;0.00;0.62;;;;;6.60;1.00;;;;;;2276942;61;1180;-88
2021/12/19 04:12:55;679565.00;2.27;1171.82;0.00;0.00;0.62;;;;;6.40;1.00;;;;;;2276838;61;1550;-89
2021/12/19 04:15:23;491421.00;1.64;847.05;0.00;0.00;0.62;;;;;6.60;1.00;;;;;;2276903;61;1919;-89
2021/12/19 04:17:51;819674.00;2.73;1415.46;0.00;0.00;0.62;;;;;6.40;1.00;;;;;;2276908;61;1372;-87
2021/12/19 04:20:19;877658.00;2.93;1516.91;57985.00;0.19;100.99;;;;;6.60;1.00;;;;;;2276896;61;946;-89
2021/12/19 04:22:47;508903.00;1.70;877.15;0.00;0.00;0.62;;;;;6.50;1.00;;;;;;2276379;61;1680;-88
2021/12/19 04:25:15;936580.00;3.12;1620.46;0.00;0.00;0.62;;;;;6.60;1.00;;;;;;2276395;61;1091;-88
2021/12/19 04:27:43;400042.00;1.33;689.88;0.00;0.00;0.62;;;;;6.40;1.00;;;;;;2276721;61;1278;-87
2021/12/19 04:30:12;544894.00;1.82;939.16;0.00;0.00;0.62;;;;;6.30;1.00;;;;;;2276870;61;1288;-87
2021/12/19 04:32:43;759702.00;2.53;1310.93;0.00;0.00;0.62;;;;;6.20;1.00;;;;;;2276775;61;981;-88
2021/12/19 04:35:12;761983.00;2.54;1314.90;17585.00;0.06;31.09;;;;;6.20;1.00;;;;;;2276846;61;1920;-88
2021/12/19 04:38:16;844961.00;2.82;1459.65;0.00;0.00;0.62;;;;;6.30;1.00;;;;;;2276664;61;1730;-89
2021/12/19 04:40:47;1233783.00;4.11;2151.42;146375.00;0.49;253.56;;;;;6.30;1.00;;;;;;2276800;61;1098;-88
2021/12/19 04:54:27;898386.00;2.99;1553.29;0.00;0.00;0.62;;;;;5.50;1.00;;;;;;2275847;61;2001;-88
2021/12/19 04:57:07;757426.00;2.52;1306.97;0.00;0.00;0.62;;;;;4.90;1.00;;;;;;2276722;61;1320;-88
2021/12/19 04:59:51;652288.00;2.17;1124.59;0.00;0.00;0.62;;;;;4.80;1.00;;;;;;2276600;61;1115;-89
2021/12/19 05:02:31;855278.00;2.85;1477.71;0.00;0.00;0.62;;;;;4.50;1.00;;;;;;2276717;61;1137;-88
2021/12/19 05:05:27;730488.00;2.43;1260.15;0.00;0.00;0.62;;;;;4.50;1.30;;;;;;2276712;61;927;-87
2021/12/19 05:16:18;846305.00;2.82;1462.00;0.00;0.00;0.62;;;;;4.90;1.00;;;;;;2276680;61;1996;-88
2021/12/19 05:18:47;686255.00;2.29;1183.41;0.00;0.00;0.62;;;;;4.60;1.00;;;;;;2276604;61;1090;-88
2021/12/19 05:21:17;911800.00;3.04;1576.85;0.00;0.00;0.62;;;;;4.60;1.00;;;;;;2276678;61;1118;-87
2021/12/19 05:24:16;782530.00;2.61;1350.67;0.00;0.00;0.62;;;;;4.40;1.40;;;;;;2276532;61;1257;-87
2021/12/19 05:26:43;778637.00;2.60;1343.89;0.00;0.00;0.62;;;;;4.50;1.70;;;;;;2276545;61;1273;-88
2021/12/19 05:29:11;1008233.00;3.36;1747.06;0.00;0.00;0.62;;;;;4.80;1.00;;;;;;2276354;61;1681;-88
2021/12/19 05:31:38;864131.00;2.88;1493.21;0.00;0.00;0.62;;;;;4.30;1.60;;;;;;2276640;61;922;-87
2021/12/19 05:34:05;590675.00;1.97;1018.12;0.00;0.00;0.62;;;;;4.70;1.00;;;;;;2276530;61;1533;-88
2021/12/19 05:47:31;924817.00;3.08;1599.75;101589.00;0.34;176.31;;;;;4.50;1.00;;;;;;2276422;61;1378;-87
2021/12/19 05:49:58;1052419.00;3.51;1825.54;88954.00;0.30;154.50;;;;;4.50;1.00;;;;;;2276578;61;1623;-89
2021/12/19 05:52:26;1017201.00;3.39;1762.96;98057.00;0.33;170.22;;;;;4.40;1.10;;;;;;2276555;61;1066;-89
2021/12/19 05:54:55;1106635.00;3.69;1922.29;103756.00;0.35;180.05;;;;;4.40;1.00;;;;;;2276526;61;2000;-88
2021/12/19 05:59:50;1113128.00;3.71;1933.92;104566.00;0.35;181.45;;;;;3.90;2.00;;;;;;2270083;61;1396;-88
2021/12/19 06:02:19;1020304.00;3.40;1768.47;101026.00;0.34;175.34;;;;;4.10;1.90;;;;;;2255731;61;969;-89
2021/12/19 06:04:47;915514.00;3.05;1583.38;106916.00;0.36;185.51;;;;;4.10;1.70;;;;;;2252161;61;964;-87
2021/12/19 06:07:14;983546.00;3.28;1703.35;92359.00;0.31;160.38;;;;;4.20;1.50;;;;;;2252523;61;1380;-88
2021/12/19 06:09:59;1165584.00;3.89;2028.12;119059.00;0.40;206.46;;;;;4.30;2.50;;;;;;2249320;61;959;-88
2021/12/19 06:19:50;1665056.00;5.55;2957.73;103383.00;0.34;179.41;;;;;4.30;1.00;;;;;;2270253;61;1376;-88
2021/12/19 06:22:17;1244404.00;4.15;2170.71;108128.00;0.36;187.60;;;;;4.50;1.00;;;;;;2268408;61;1010;-87
2021/12/19 06:24:44;1135878.00;3.79;1974.71;102078.00;0.34;177.16;;;;;4.40;1.00;;;;;;2258041;61;993;-87
2021/12/19 06:27:12;978325.00;3.26;1694.12;93810.00;0.31;162.89;;;;;4.50;1.00;;;;;;2257305;61;1387;-87
2021/12/19 06:29:39;1126756.00;3.76;1958.34;103775.00;0.35;180.09;;;;;4.70;1.00;;;;;;2264441;61;932;-86
2021/12/19 06:32:07;1088594.00;3.63;1890.04;108701.00;0.36;188.59;;;;;4.60;1.00;;;;;;2257382;61;1091;-87
2021/12/19 06:34:34;1109687.00;3.70;1927.76;101398.00;0.34;175.98;;;;;4.60;1.00;;;;;;2264389;61;1034;-87
2021/12/19 06:37:01;806533.00;2.69;1392.52;106644.00;0.36;185.04;;;;;4.60;1.00;;;;;;2260524;61;1931;-87
2021/12/19 06:39:29;960799.00;3.20;1663.16;99395.00;0.33;172.53;;;;;4.40;1.00;;;;;;2264342;61;927;-87
2021/12/19 06:41:55;726679.00;2.42;1253.53;103318.00;0.34;179.30;;;;;4.20;1.00;;;;;;2260588;61;990;-88
2021/12/19 06:44:24;1149340.00;3.83;1998.89;121711.00;0.41;211.03;;;;;4.40;1.00;;;;;;2264417;61;919;-86
2021/12/19 06:46:51;780005.00;2.60;1346.27;103532.00;0.35;179.67;;;;;4.00;1.00;;;;;;2264342;61;1329;-86
2021/12/19 06:49:18;730629.00;2.44;1260.39;0.00;0.00;0.62;;;;;4.00;1.00;;;;;;2257306;61;966;-87
2021/12/19 06:51:45;566902.00;1.89;977.10;0.00;0.00;0.62;;;;;4.30;1.40;;;;;;2264352;61;801;-89
2021/12/19 06:54:12;714708.00;2.38;1232.75;0.00;0.00;0.62;;;;;4.50;1.00;;;;;;2263895;61;972;-88
2021/12/19 06:56:39;777011.00;2.59;1341.06;0.00;0.00;0.62;;;;;4.60;1.00;;;;;;2259749;61;2015;-88
2021/12/19 06:59:06;880670.00;2.94;1522.20;0.00;0.00;0.62;;;;;4.30;1.00;;;;;;2259791;61;1022;-87
2021/12/19 07:01:37;833955.00;2.78;1440.41;0.00;0.00;0.62;;;;;4.10;1.00;;;;;;2259792;61;906;-88
2021/12/19 07:04:04;706878.00;2.36;1219.17;0.00;0.00;0.62;;;;;4.10;1.00;;;;;;2259851;61;1039;-87
2021/12/19 07:06:31;877866.00;2.93;1517.28;0.00;0.00;0.62;;;;;4.20;1.00;;;;;;2253111;61;1282;-87
2021/12/19 07:08:58;1212101.00;4.04;2112.11;0.00;0.00;0.62;;;;;4.10;1.00;;;;;;2259802;61;1038;-88
2021/12/19 07:11:25;782628.00;2.61;1350.84;0.00;0.00;0.62;;;;;4.40;1.00;;;;;;2251690;61;946;-88
2021/12/19 07:13:53;807675.00;2.69;1394.51;0.00;0.00;0.62;;;;;4.50;1.00;;;;;;2252217;61;961;-87
2021/12/19 07:16:20;541148.00;1.80;932.70;0.00;0.00;0.62;;;;;4.00;1.00;;;;;;2256185;61;1989;-88
2021/12/19 07:18:49;1133926.00;3.78;1971.20;0.00;0.00;0.62;;;;;4.00;1.00;;;;;;2244322;61;981;-88
2021/12/19 07:21:16;944056.00;3.15;1633.63;0.00;0.00;0.62;;;;;4.00;1.00;;;;;;2244496;61;1053;-88
2021/12/19 07:23:44;774703.00;2.58;1337.04;0.00;0.00;0.62;;;;;4.10;1.00;;;;;;2244460;61;997;-88
2021/12/19 07:26:12;622768.00;2.08;1073.55;0.00;0.00;0.62;;;;;4.30;1.00;;;;;;2243537;61;1433;-88
2021/12/19 07:28:44;919538.00;3.07;1590.46;0.00;0.00;0.62;;;;;4.20;1.00;;;;;;2243881;61;1015;-87
2021/12/19 07:31:11;686600.00;2.29;1184.01;0.00;0.00;0.62;;;;;4.60;1.00;;;;;;2231536;61;1023;-89
2021/12/19 07:33:38;863138.00;2.88;1491.47;0.00;0.00;0.62;;;;;4.50;1.00;;;;;;2241181;61;1015;-88
2021/12/19 07:36:07;729645.00;2.43;1258.69;0.00;0.00;0.62;;;;;4.50;1.00;;;;;;2239822;61;2010;-88
2021/12/19 07:38:40;928552.00;3.10;1606.32;0.00;0.00;0.62;;;;;4.00;1.00;;;;;;2249797;61;1002;-87
2021/12/19 07:41:07;645727.00;2.15;1113.24;0.00;0.00;0.62;;;;;4.00;1.90;;;;;;2257232;61;941;-87
2021/12/19 07:43:34;748645.00;2.50;1291.70;0.00;0.00;0.62;;;;;4.40;1.00;;;;;;2261269;61;999;-88
2021/12/19 07:46:02;861649.00;2.87;1488.86;0.00;0.00;0.62;;;;;4.60;1.00;;;;;;2256375;61;1272;-89
2021/12/19 07:48:29;603256.00;2.01;1039.84;0.00;0.00;0.62;;;;;4.80;1.00;;;;;;2256397;61;948;-89
2021/12/19 07:50:56;608358.00;2.03;1048.65;17688.00;0.06;31.27;;;;;4.60;1.00;;;;;;2256296;61;1006;-89
2021/12/19 07:53:24;971767.00;3.24;1682.53;0.00;0.00;0.62;;;;;4.50;1.00;;;;;;2256062;61;1005;-87
2021/12/19 07:55:51;814549.00;2.72;1406.51;0.00;0.00;0.62;;;;;4.30;1.00;;;;;;2252900;61;1926;-87
2021/12/19 07:58:18;972112.00;3.24;1683.14;0.00;0.00;0.62;;;;;4.10;1.00;;;;;;2256301;61;940;-86
2021/12/19 08:00:45;662327.00;2.21;1141.97;0.00;0.00;0.62;;;;;4.20;1.00;;;;;;2256413;61;1023;-88
2021/12/19 08:03:12;912278.00;3.04;1577.69;0.00;0.00;0.62;;;;;4.60;1.00;;;;;;2256845;61;942;-88
2021/12/19 08:05:39;861719.00;2.87;1488.98;0.00;0.00;0.62;;;;;4.60;1.00;;;;;;2253674;61;985;-87
2021/12/19 08:08:10;799522.00;2.67;1380.29;0.00;0.00;0.62;;;;;4.70;1.00;;;;;;2254136;61;977;-87
2021/12/19 08:13:23;755735.00;2.52;1304.03;0.00;0.00;0.62;;;;;4.80;1.00;;;;;;2264839;61;978;-88
2021/12/19 08:15:50;649424.00;2.16;1119.64;0.00;0.00;0.62;;;;;5.00;1.00;;;;;;2264272;61;1922;-87
2021/12/19 08:18:16;621562.00;2.07;1071.47;0.00;0.00;0.62;;;;;5.20;1.00;;;;;;2261035;61;1119;-88
2021/12/19 08:20:44;740425.00;2.47;1277.41;0.00;0.00;0.62;;;;;5.40;1.00;;;;;;2260204;61;958;-87
2021/12/19 08:23:11;626681.00;2.09;1080.31;0.00;0.00;0.62;;;;;5.40;1.00;;;;;;2252171;61;992;-87
2021/12/19 08:25:39;609112.00;2.03;1049.96;0.00;0.00;0.62;;;;;5.60;1.00;;;;;;2244926;61;1014;-88
2021/12/19 08:28:06;648402.00;2.16;1117.87;0.00;0.00;0.62;;;;;5.80;1.00;;;;;;2248304;61;1098;-87
2021/12/19 08:30:33;923986.00;3.08;1598.29;0.00;0.00;0.62;;;;;5.90;1.00;;;;;;2248322;61;985;-88
2021/12/19 08:33:00;873219.00;2.91;1509.13;61303.00;0.20;106.73;;;;;5.90;1.00;;;;;;2244286;61;1134;-88
2021/12/19 08:35:27;943976.00;3.15;1633.49;9061.00;0.03;16.32;;;;;5.70;1.00;;;;;;2236377;62;2038;-87
2021/12/19 08:37:54;739893.00;2.47;1276.49;0.00;0.00;0.62;;;;;5.70;1.00;;;;;;2233952;61;1303;-88
2021/12/19 08:40:23;604590.00;2.02;1042.15;0.00;0.00;0.62;;;;;5.90;1.00;;;;;;2244345;61;1023;-87
2021/12/19 08:42:52;590531.00;1.97;1017.87;0.00;0.00;0.62;;;;;6.00;1.00;;;;;;2244702;61;1030;-88
2021/12/19 08:45:19;707362.00;2.36;1220.01;0.00;0.00;0.62;;;;;5.90;1.00;;;;;;2247922;61;982;-88
2021/12/19 08:47:46;832229.00;2.77;1437.39;150.00;0.00;0.88;;;;;6.00;1.00;;;;;;2244209;61;1409;-88
2021/12/19 08:50:15;976047.00;3.25;1690.09;0.00;0.00;0.62;;;;;5.70;1.00;;;;;;2244299;61;943;-88
2021/12/19 08:52:43;119473792.00;398.25;69082336.00;0.00;0.00;0.62;;;;;5.10;1.00;;;;;;2242018;61;978;-88
2021/12/19 08:55:11;720966.00;2.40;1243.62;0.00;0.00;0.62;;;;;4.80;1.00;;;;;;2248237;61;937;-88
2021/12/19 08:57:39;726474.00;2.42;1253.18;0.00;0.00;0.62;;;;;4.60;1.00;;;;;;2245796;61;2002;-88
2021/12/19 09:00:11;639059.00;2.13;1101.71;0.00;0.00;0.62;;;;;4.40;1.00;;;;;;2238431;61;995;-88
2021/12/19 09:02:38;688349.00;2.29;1187.04;0.00;0.00;0.62;;;;;4.30;1.00;;;;;;2248121;61;1002;-88
2021/12/19 09:05:07;785031.00;2.62;1355.03;0.00;0.00;0.62;;;;;4.20;1.00;;;;;;2236929;62;954;-86
2021/12/19 09:07:34;119485040.00;398.28;69101872.00;0.00;0.00;0.62;;;;;4.50;1.00;;;;;;2240260;62;1362;-88
2021/12/19 09:10:01;773985.00;2.58;1335.79;0.00;0.00;0.62;;;;;4.60;1.00;;;;;;2241660;61;1041;-87
2021/12/19 09:12:28;574040.00;1.91;989.42;0.00;0.00;0.62;;;;;4.80;1.00;;;;;;2236917;62;1026;-88
2021/12/19 09:14:55;852309.00;2.84;1472.51;0.00;0.00;0.62;;;;;4.90;1.00;;;;;;2240917;61;948;-87
2021/12/19 09:17:24;724102.00;2.41;1249.06;0.00;0.00;0.62;;;;;4.70;1.00;;;;;;2244013;61;1990;-88
2021/12/19 09:19:51;618578.00;2.06;1066.31;0.00;0.00;0.62;;;;;4.70;1.00;;;;;;2244193;61;1053;-88
2021/12/19 09:22:18;898856.00;3.00;1554.11;0.00;0.00;0.62;;;;;4.90;1.00;;;;;;2245711;61;1052;-89
2021/12/19 09:24:45;903406.00;3.01;1562.10;0.00;0.00;0.62;;;;;5.20;1.00;;;;;;2244073;61;966;-88
2021/12/19 09:27:16;693136.00;2.31;1195.34;0.00;0.00;0.62;;;;;5.30;1.00;;;;;;2244154;61;1429;-87
2021/12/19 09:29:43;1045621.00;3.49;1813.44;1796.00;0.01;3.73;;;;;5.20;1.00;;;;;;2241943;61;980;-88
2021/12/19 09:32:10;117973888.00;393.25;66510768.00;0.00;0.00;0.62;;;;;4.90;1.00;;;;;;2251756;61;1064;-88
2021/12/19 09:34:38;662831.00;2.21;1142.84;0.00;0.00;0.62;;;;;4.70;1.00;;;;;;2252062;61;914;-89
2021/12/19 09:37:05;612481.00;2.04;1055.78;0.00;0.00;0.62;;;;;4.70;1.00;;;;;;2248464;61;2003;-88
2021/12/19 09:39:32;878558.00;2.93;1518.49;0.00;0.00;0.62;;;;;4.50;1.00;;;;;;2252023;61;1040;-87
2021/12/19 09:42:08;1051542.00;3.51;1823.98;0.00;0.00;0.62;;;;;4.50;1.00;;;;;;2248211;61;963;-89
2021/12/19 09:44:37;699633.00;2.33;1206.60;0.00;0.00;0.62;;;;;4.60;1.00;;;;;;2251690;61;1005;-89
2021/12/19 09:47:05;119231744.00;397.44;68662944.00;0.00;0.00;0.62;;;;;5.10;1.00;;;;;;2243101;61;1264;-88
2021/12/19 09:49:34;799964.00;2.67;1381.06;0.00;0.00;0.62;;;;;5.40;1.00;;;;;;2259966;61;1191;-87
2021/12/19 09:52:05;785422.00;2.62;1355.71;594.00;0.00;1.65;;;;;5.80;1.00;;;;;;2260062;61;1169;-88
2021/12/19 09:54:32;834433.00;2.78;1441.24;0.00;0.00;0.62;;;;;5.70;1.00;;;;;;2253347;61;1005;-88
2021/12/19 09:56:59;664491.00;2.21;1145.71;0.00;0.00;0.62;;;;;5.70;1.00;;;;;;2259969;61;1920;-89
2021/12/19 09:59:27;744132.00;2.48;1283.86;0.00;0.00;0.62;;;;;5.80;1.00;;;;;;2261058;61;967;-88
2021/12/19 10:01:55;954188.00;3.18;1651.50;0.00;0.00;0.62;;;;;5.80;1.00;;;;;;2263919;61;960;-88
2021/12/19 10:04:34;834703.00;2.78;1441.71;0.00;0.00;0.62;;;;;5.70;1.00;;;;;;2263952;61;1041;-88
2021/12/19 10:07:09;1014045.00;3.38;1757.36;102136.00;0.34;177.26;;;;;5.60;1.00;;;;;;2263764;61;1581;-88
2021/12/19 10:09:42;806850.00;2.69;1393.07;85289.00;0.28;148.17;;;;;5.90;1.00;;;;;;2251949;61;1010;-88
2021/12/19 10:15:01;913535.00;3.05;1579.90;99465.00;0.33;172.65;;;;;5.90;1.00;;;;;;2240041;62;1051;-89
2021/12/19 10:17:29;1104136.00;3.68;1917.82;103566.00;0.35;179.73;;;;;6.00;1.00;;;;;;2239535;62;2003;-89
2021/12/19 10:20:01;871929.00;2.91;1506.87;103899.00;0.35;180.30;;;;;5.90;1.00;;;;;;2242034;61;1058;-88
2021/12/19 10:22:33;947221.00;3.16;1639.21;102311.00;0.34;177.56;;;;;5.80;1.00;;;;;;2243923;61;1015;-88
2021/12/19 10:25:17;801649.00;2.67;1384.00;90314.00;0.30;156.85;;;;;5.20;1.00;;;;;;2242087;61;1096;-88
2021/12/19 10:27:46;1260668.00;4.20;2200.30;103063.00;0.34;178.86;;;;;5.00;1.00;;;;;;2246407;61;1358;-88
2021/12/19 10:30:19;913812.00;3.05;1580.39;89710.00;0.30;155.81;;;;;5.20;1.00;;;;;;2256211;61;986;-88
2021/12/19 10:32:55;977021.00;3.26;1691.82;94936.00;0.32;164.83;;;;;5.30;1.00;;;;;;2255838;61;966;-88
2021/12/19 10:35:26;127857248.00;426.19;84685376.00;166609.00;0.56;288.43;;;;;5.50;1.00;;;;;;2255848;61;950;-88
2021/12/19 10:37:55;2310477.00;7.70;4282.55;258492.00;0.86;446.56;;;;;5.30;1.00;;;;;;2255698;61;1927;-88
2021/12/19 10:40:23;1980158.00;6.60;3583.66;249991.00;0.83;431.94;;;;;5.50;1.00;;;;;;2255750;61;1172;-87
2021/12/19 10:42:57;119729736.00;399.10;69527672.00;118290896.00;394.30;67048848.00;;;;;5.60;1.00;;;;;;2255885;61;1053;-88
2021/12/19 10:45:32;1497834.00;4.99;2639.05;161369.00;0.54;279.40;;;;;5.50;1.00;;;;;;2251685;61;1001;-88
2021/12/19 10:48:19;1902630.00;6.34;3426.27;224258.00;0.75;387.67;;;;;5.50;1.00;;;;;;2251809;61;1527;-88
2021/12/19 10:50:49;1844951.00;6.15;3310.67;185676.00;0.62;321.26;;;;;5.60;1.00;;;;;;2253772;61;1028;-88
2021/12/19 10:53:27;2307459.00;7.69;4275.94;155166.00;0.52;268.71;;;;;6.00;1.00;;;;;;2255788;61;1029;-88
2021/12/19 10:55:55;2178371.00;7.26;3997.24;204086.00;0.68;352.96;;;;;6.40;1.00;;;;;;2255854;61;1454;-87
2021/12/19 10:58:27;1748407.00;5.83;3119.87;162957.00;0.54;282.13;;;;;6.60;1.00;;;;;;2259717;61;2015;-87
2021/12/19 11:01:08;1902030.00;6.34;3425.06;193169.00;0.64;334.16;;;;;6.30;1.00;;;;;;2252905;61;967;-89